Time;durP1;ratioP1;P1;durP2;ratioP2;P2;SDS_P1;SDS_P2;PMS_P1;PMS_P2;Temp;Humidity;BMP_temperature;BMP_pressure;BME280_temperature;BME280_humidity;BME280_pressure;Samples;Min_cycle;Max_cycle;Signal;HPM_P1;HPM_P2
2020/12/18 00:01:27;;;;;;;23.58;12.82;;;;;;;5.83;96.08;102058.50;5031540;28;20045;-73
2020/12/18 00:03:53;;;;;;;21.27;11.82;;;;;;;5.90;95.74;102072.22;5015571;28;20033;-73
2020/12/18 00:06:19;;;;;;;21.30;11.75;;;;;;;5.72;96.24;102037.09;5035372;28;20510;-73
2020/12/18 00:08:45;;;;;;;22.05;11.57;;;;;;;5.76;95.92;102041.28;5038168;28;20087;-73
2020/12/18 00:11:10;;;;;;;22.00;12.18;;;;;;;5.91;95.64;102065.13;5011163;28;20049;-73
2020/12/18 00:13:36;;;;;;;20.50;12.38;;;;;;;5.90;96.17;102069.56;5025611;28;20120;-73
2020/12/18 00:16:01;;;;;;;21.00;12.75;;;;;;;5.92;96.63;102064.19;5018260;28;20491;-73
2020/12/18 00:18:27;;;;;;;22.58;11.98;;;;;;;5.91;96.02;102063.34;5036233;28;20064;-76
2020/12/18 00:20:52;;;;;;;21.55;12.57;;;;;;;5.90;96.25;102063.44;5018021;28;20117;-77
2020/12/18 00:23:18;;;;;;;19.33;12.68;;;;;;;5.90;96.01;102058.16;5026601;28;20109;-77
2020/12/18 00:25:46;;;;;;;24.20;13.15;;;;;;;5.83;96.47;102049.72;5044401;28;20505;-77
2020/12/18 00:28:11;;;;;;;24.58;13.40;;;;;;;5.82;96.05;102062.09;5026774;28;20040;-77
2020/12/18 00:30:37;;;;;;;22.95;13.05;;;;;;;5.86;96.58;102056.59;5028853;28;20116;-76
2020/12/18 00:33:02;;;;;;;24.05;13.55;;;;;;;5.87;96.33;102058.31;4989693;28;20148;-77
2020/12/18 00:35:28;;;;;;;23.02;13.90;;;;;;;5.86;96.09;102056.59;5019598;28;20120;-76
2020/12/18 00:37:54;;;;;;;20.88;13.82;;;;;;;5.85;96.20;102055.75;5039244;28;20051;-76
2020/12/18 00:40:19;;;;;;;28.08;14.55;;;;;;;5.83;95.77;102055.00;5036072;28;20539;-76
2020/12/18 00:42:45;;;;;;;23.58;14.40;;;;;;;5.79;96.01;102062.25;5020596;28;20140;-73
2020/12/18 00:45:10;;;;;;;24.55;14.00;;;;;;;5.51;96.14;102016.25;4999355;28;20100;-77
2020/12/18 00:47:36;;;;;;;23.80;15.40;;;;;;;5.76;96.18;102056.31;5017041;28;20345;-77
2020/12/18 00:50:02;;;;;;;23.77;14.18;;;;;;;5.73;96.36;102057.34;5026473;28;20033;-77
2020/12/18 00:52:28;;;;;;;23.60;14.63;;;;;;;5.73;95.89;102057.34;5009381;28;20091;-76
2020/12/18 00:54:53;;;;;;;26.58;14.75;;;;;;;5.69;96.10;102066.41;5016250;28;20570;-76
2020/12/18 00:57:19;;;;;;;29.70;15.35;;;;;;;5.66;96.18;102063.94;5011867;28;20128;-76
2020/12/18 00:59:44;;;;;;;32.35;15.63;;;;;;;5.63;96.21;102058.84;5020301;28;20115;-76
2020/12/18 01:02:10;;;;;;;31.70;15.52;;;;;;;5.45;96.52;102035.16;5019903;28;20562;-76
2020/12/18 01:04:35;;;;;;;31.70;16.35;;;;;;;5.56;97.05;102061.00;5020828;28;20048;-76
2020/12/18 01:07:01;;;;;;;27.20;17.05;;;;;;;5.57;96.49;102054.75;5041823;28;20128;-74
2020/12/18 01:09:26;;;;;;;26.05;15.90;;;;;;;5.58;96.68;102063.56;5019059;28;21941;-77
2020/12/18 01:11:52;;;;;;;27.70;16.98;;;;;;;5.54;97.09;102062.88;5023133;28;20038;-77
2020/12/18 01:14:18;;;;;;;30.23;17.38;;;;;;;5.07;96.59;101972.09;5017533;28;20075;-77
2020/12/18 01:16:54;;;;;;;38.53;16.60;;;;;;;5.35;96.56;102021.59;5020318;28;20366;-77
2020/12/18 01:19:19;;;;;;;29.90;18.30;;;;;;;5.44;96.96;102024.63;5015034;28;20521;-77
2020/12/18 01:21:46;;;;;;;34.75;17.48;;;;;;;5.54;97.45;102054.94;5017360;28;20037;-74
2020/12/18 01:24:11;;;;;;;32.65;19.02;;;;;;;5.54;97.36;102054.06;5024465;28;20502;-77
2020/12/18 01:26:37;;;;;;;29.80;18.35;;;;;;;5.27;97.14;102013.25;5011372;28;20067;-78
2020/12/18 01:29:03;;;;;;;33.80;19.25;;;;;;;5.53;97.43;102050.59;5002754;28;20060;-74
2020/12/18 01:31:28;;;;;;;34.95;19.38;;;;;;;5.56;97.58;102044.25;5025970;28;20063;-76
2020/12/18 01:33:54;;;;;;;32.67;19.20;;;;;;;5.60;97.34;102049.28;5004749;28;20055;-78
2020/12/18 01:36:20;;;;;;;31.48;18.52;;;;;;;5.54;97.73;102038.19;5041886;28;20037;-75
2020/12/18 01:38:45;;;;;;;31.92;19.33;;;;;;;5.38;97.19;102028.50;5038687;28;20141;-73
2020/12/18 01:41:11;;;;;;;40.20;19.48;;;;;;;5.55;97.24;102042.53;5024510;28;20028;-72
2020/12/18 01:43:37;;;;;;;41.00;19.90;;;;;;;5.61;97.87;102055.44;5016536;28;20139;-73
2020/12/18 01:46:03;;;;;;;34.85;19.60;;;;;;;5.48;97.72;102028.81;5012951;28;20044;-73
2020/12/18 01:48:29;;;;;;;39.55;19.52;;;;;;;5.47;97.61;102024.47;4997641;28;20095;-76
2020/12/18 01:50:54;;;;;;;35.55;19.25;;;;;;;5.56;97.38;102036.31;5001436;28;20064;-76
2020/12/18 01:53:21;;;;;;;40.20;19.85;;;;;;;5.57;97.92;102044.16;5024598;28;20450;-77
2020/12/18 01:55:46;;;;;;;33.83;18.88;;;;;;;5.57;97.82;102041.50;5025185;28;20483;-77
2020/12/18 01:58:12;;;;;;;28.77;18.60;;;;;;;5.58;97.64;102052.97;4999683;28;20116;-77
2020/12/18 02:00:37;;;;;;;35.50;19.05;;;;;;;5.42;97.49;102013.31;5027904;28;20124;-73
2020/12/18 02:03:03;;;;;;;37.92;18.27;;;;;;;5.61;97.62;102048.31;4999072;28;20117;-74
2020/12/18 02:05:28;;;;;;;31.80;17.85;;;;;;;5.64;96.95;102049.94;5037406;28;20127;-77
2020/12/18 02:08:02;;;;;;;37.97;19.02;;;;;;;5.62;97.21;102054.50;5011789;28;20582;-77
2020/12/18 02:10:28;;;;;;;30.50;18.08;;;;;;;5.63;97.08;102048.25;5027461;28;20026;-77
2020/12/18 02:12:54;;;;;;;31.33;18.30;;;;;;;5.64;97.46;102055.22;5014635;28;20574;-77
2020/12/18 02:15:20;;;;;;;30.92;18.70;;;;;;;5.62;97.31;102042.09;5050723;28;20048;-77
2020/12/18 02:17:46;;;;;;;37.35;18.85;;;;;;;5.61;98.37;102036.91;5011068;28;20034;-77
2020/12/18 02:20:11;;;;;;;36.80;20.50;;;;;;;5.59;98.09;102036.13;5020919;28;20127;-77
2020/12/18 02:22:37;;;;;;;33.70;19.10;;;;;;;5.59;97.80;102034.31;5004954;28;20024;-77
2020/12/18 02:25:07;;;;;;;39.90;19.00;;;;;;;5.59;97.51;102033.47;5044739;28;20144;-77
2020/12/18 02:27:36;;;;;;;37.60;19.77;;;;;;;5.31;97.53;101976.88;5033482;28;20043;-73
2020/12/18 02:30:05;;;;;;;36.38;18.30;;;;;;;5.64;97.71;102020.81;5006235;28;20037;-73
2020/12/18 02:32:31;;;;;;;32.53;18.35;;;;;;;5.65;97.40;102020.72;5026126;28;20029;-76
2020/12/18 02:34:56;;;;;;;34.78;18.10;;;;;;;5.66;97.12;102022.44;5009299;28;20521;-74
2020/12/18 02:37:22;;;;;;;35.15;17.58;;;;;;;5.65;97.52;102020.72;5019384;28;20291;-76
2020/12/18 02:39:47;;;;;;;36.30;18.55;;;;;;;5.40;97.04;101986.06;5024225;28;20167;-76
2020/12/18 02:42:13;;;;;;;30.52;16.83;;;;;;;5.62;97.92;102034.16;5025935;28;20029;-77
2020/12/18 02:44:38;;;;;;;38.47;17.52;;;;;;;5.46;97.36;102007.75;5038223;28;20115;-76
2020/12/18 02:47:04;;;;;;;33.47;17.63;;;;;;;5.54;97.92;102025.81;5029228;28;20124;-76
2020/12/18 02:49:29;;;;;;;30.48;17.45;;;;;;;5.52;97.83;102030.34;5017026;28;20069;-76
2020/12/18 02:51:55;;;;;;;29.27;17.48;;;;;;;5.54;98.03;102020.53;5020895;28;20212;-76
2020/12/18 02:54:20;;;;;;;42.80;18.83;;;;;;;5.47;98.41;102019.16;5015650;28;20556;-76
2020/12/18 02:56:46;;;;;;;38.45;18.05;;;;;;;5.49;97.62;102022.56;5017921;28;20685;-76
2020/12/18 02:59:11;;;;;;;42.85;19.10;;;;;;;5.53;97.72;102026.75;5014825;28;20136;-76
2020/12/18 03:01:37;;;;;;;35.53;18.33;;;;;;;5.53;97.55;102016.16;5040886;28;20120;-76
2020/12/18 03:04:02;;;;;;;36.75;18.10;;;;;;;5.13;97.75;101955.00;5034961;28;20037;-76
2020/12/18 03:06:28;;;;;;;34.72;17.55;;;;;;;5.53;97.32;102008.22;5022345;28;20040;-76
2020/12/18 03:08:53;;;;;;;31.85;17.23;;;;;;;5.51;97.39;102005.66;5020381;28;20137;-76
2020/12/18 03:11:19;;;;;;;34.50;17.95;;;;;;;5.43;97.43;101997.31;5040593;28;20460;-73
2020/12/18 03:13:45;;;;;;;39.55;17.90;;;;;;;4.92;97.12;101923.53;5000752;28;20116;-76
2020/12/18 03:16:11;;;;;;;38.55;18.25;;;;;;;5.02;97.44;101935.28;5016504;28;20033;-76
2020/12/18 03:18:38;;;;;;;37.20;16.77;;;;;;;5.41;98.12;102007.16;5010477;28;20510;-73
2020/12/18 03:21:04;;;;;;;35.42;17.15;;;;;;;5.38;97.75;102009.13;5019582;28;20486;-77
2020/12/18 03:23:30;;;;;;;40.00;17.92;;;;;;;5.39;97.26;102013.47;5021535;28;20051;-77
2020/12/18 03:25:55;;;;;;;31.65;16.48;;;;;;;5.41;97.08;102016.91;5031755;28;20448;-76
2020/12/18 03:28:21;;;;;;;34.90;16.65;;;;;;;5.36;97.79;102015.38;5017062;28;20123;-76
2020/12/18 03:30:46;;;;;;;30.88;16.08;;;;;;;5.19;97.44;101984.59;5024674;28;21110;-77
2020/12/18 03:33:12;;;;;;;38.67;16.90;;;;;;;5.36;97.96;102007.41;5041251;28;20120;-77
2020/12/18 03:35:37;;;;;;;32.28;16.55;;;;;;;5.36;97.39;102009.22;5057231;28;20136;-74
2020/12/18 03:38:03;;;;;;;38.35;18.00;;;;;;;5.34;97.99;102011.94;5038665;28;20090;-76
2020/12/18 03:40:29;;;;;;;41.63;18.30;;;;;;;5.32;98.34;102003.25;5005128;28;20140;-73
2020/12/18 03:42:54;;;;;;;35.05;17.63;;;;;;;5.31;98.37;102020.06;5044172;28;20163;-77
2020/12/18 03:45:20;;;;;;;35.90;17.15;;;;;;;5.32;98.38;102007.69;5025741;28;20611;-76
2020/12/18 03:47:45;;;;;;;38.25;16.92;;;;;;;5.33;98.54;102004.09;5047966;28;20131;-77
2020/12/18 03:50:11;;;;;;;46.63;16.90;;;;;;;5.36;97.75;102006.59;5034742;28;20127;-77
2020/12/18 03:52:36;;;;;;;38.42;17.58;;;;;;;5.34;98.60;102000.53;5046393;28;20041;-76
2020/12/18 03:55:02;;;;;;;37.50;16.85;;;;;;;5.36;97.77;102003.94;5029993;28;20112;-76
2020/12/18 03:57:27;;;;;;;36.92;17.38;;;;;;;5.38;98.50;101994.09;5026593;28;20559;-76
2020/12/18 03:59:53;;;;;;;34.83;16.38;;;;;;;5.41;98.42;101998.38;5036754;28;20738;-76
2020/12/18 04:02:18;;;;;;;36.45;17.17;;;;;;;5.40;98.11;102001.94;5024154;28;20108;-76
2020/12/18 04:04:44;;;;;;;41.22;16.27;;;;;;;5.40;98.23;102000.13;5018514;28;20120;-76
2020/12/18 04:07:14;;;;;;;36.00;15.52;;;;;;;5.41;98.11;101996.56;5025931;28;20057;-76
2020/12/18 04:09:49;;;;;;;35.95;16.08;;;;;;;5.44;98.22;101999.03;5028436;28;20067;-76
2020/12/18 04:12:14;;;;;;;38.53;15.88;;;;;;;5.50;98.34;101996.00;5037847;28;20047;-77
2020/12/18 04:14:40;;;;;;;35.58;15.13;;;;;;;5.56;98.21;101981.56;5033470;28;20128;-75
2020/12/18 04:17:05;;;;;;;31.92;14.60;;;;;;;5.54;97.53;101982.59;5035968;28;20132;-76
2020/12/18 04:19:31;;;;;;;39.92;16.17;;;;;;;5.41;97.80;101966.59;5044054;28;20029;-75
2020/12/18 04:21:56;;;;;;;35.20;16.13;;;;;;;5.57;98.73;101977.09;5008662;28;20482;-75
2020/12/18 04:24:22;;;;;;;38.53;16.08;;;;;;;5.57;98.60;101977.09;5035628;28;20281;-76
2020/12/18 04:26:48;;;;;;;38.28;15.30;;;;;;;5.47;98.51;101948.53;5019950;28;20128;-77
2020/12/18 04:29:14;;;;;;;33.50;15.30;;;;;;;5.58;98.37;101971.72;5015074;28;20041;-76
2020/12/18 04:31:39;;;;;;;34.20;14.60;;;;;;;5.63;99.03;101985.53;5019257;28;20041;-76
2020/12/18 04:34:05;;;;;;;30.40;14.70;;;;;;;5.66;98.72;101979.19;5006856;28;20092;-77
2020/12/18 04:36:30;;;;;;;32.20;15.02;;;;;;;5.74;98.33;101973.44;5028676;28;20558;-76
2020/12/18 04:38:56;;;;;;;35.33;14.20;;;;;;;5.75;97.93;101976.00;5019209;28;20125;-77
2020/12/18 04:41:21;;;;;;;27.95;14.50;;;;;;;5.78;98.11;101970.50;5028863;28;20160;-76
2020/12/18 04:43:47;;;;;;;28.15;14.85;;;;;;;5.82;98.61;101972.03;5028257;28;20112;-77
2020/12/18 04:46:16;;;;;;;32.13;13.82;;;;;;;5.85;98.41;101963.03;5000757;28;20057;-77
2020/12/18 04:48:41;;;;;;;33.53;13.95;;;;;;;5.79;97.61;101950.16;5016699;28;20041;-77
2020/12/18 04:51:07;;;;;;;38.15;14.38;;;;;;;5.66;97.78;101927.09;5031831;28;20117;-77
2020/12/18 04:53:33;;;;;;;33.70;13.90;;;;;;;5.93;98.38;101959.91;5004159;28;20135;-76
2020/12/18 04:56:07;;;;;;;27.58;14.05;;;;;;;5.96;98.17;101962.38;5037133;28;20129;-76
2020/12/18 04:58:33;;;;;;;30.85;13.82;;;;;;;5.91;97.83;101954.72;5046917;28;20021;-76
2020/12/18 05:00:58;;;;;;;33.17;14.32;;;;;;;5.93;97.83;101954.59;5047664;28;20025;-76
2020/12/18 05:03:24;;;;;;;35.53;13.63;;;;;;;5.77;97.76;101915.81;4980282;28;20439;-76
2020/12/18 05:05:49;;;;;;;29.83;13.98;;;;;;;5.79;97.85;101915.72;5010743;28;20137;-73
2020/12/18 05:08:15;;;;;;;30.55;13.48;;;;;;;6.01;98.03;101947.06;5022308;28;20588;-76
2020/12/18 05:10:40;;;;;;;30.08;13.80;;;;;;;5.88;97.54;101923.09;5018071;28;20132;-74
2020/12/18 05:13:06;;;;;;;25.30;12.45;;;;;;;6.00;97.66;101937.41;4990625;28;20112;-73
2020/12/18 05:15:34;;;;;;;25.10;12.18;;;;;;;6.02;97.72;101935.53;5022029;28;20566;-76
2020/12/18 05:18:00;;;;;;;32.00;13.45;;;;;;;6.01;97.67;101931.19;5042093;28;20056;-76
2020/12/18 05:20:28;;;;;;;25.52;12.80;;;;;;;5.85;97.15;101893.31;5037294;28;20495;-74
2020/12/18 05:22:54;;;;;;;34.78;12.55;;;;;;;5.61;97.58;101854.16;5033183;28;20095;-76
2020/12/18 05:25:19;;;;;;;32.08;13.70;;;;;;;5.97;96.63;101916.38;4990964;28;20037;-76
2020/12/18 05:27:45;;;;;;;28.67;11.95;;;;;;;5.49;97.20;101843.41;5017695;28;20063;-77
2020/12/18 05:30:11;;;;;;;26.00;12.65;;;;;;;5.88;96.96;101919.63;5005178;28;20064;-76
2020/12/18 05:32:36;;;;;;;33.10;13.75;;;;;;;5.62;96.83;101887.66;5048950;28;20095;-73
2020/12/18 05:35:02;;;;;;;26.45;12.55;;;;;;;5.78;97.01;101925.47;5007726;28;20503;-76
2020/12/18 05:37:36;;;;;;;31.50;13.68;;;;;;;5.69;96.93;101899.56;5011569;28;20167;-76
2020/12/18 05:40:01;;;;;;;31.98;13.13;;;;;;;5.75;97.04;101912.44;5025508;28;20043;-76
2020/12/18 05:42:27;;;;;;;30.80;12.55;;;;;;;5.75;97.41;101908.91;5034706;28;20460;-76
2020/12/18 05:44:52;;;;;;;26.90;13.60;;;;;;;5.71;97.61;101902.97;5031010;28;20123;-76
2020/12/18 05:47:18;;;;;;;26.02;13.40;;;;;;;5.65;98.03;101892.75;5024851;28;20104;-76
2020/12/18 05:49:43;;;;;;;30.33;13.00;;;;;;;5.69;97.23;101893.41;4986617;28;20125;-76
2020/12/18 05:52:17;;;;;;;29.45;14.00;;;;;;;5.73;98.03;101901.06;5020885;28;20163;-76
2020/12/18 05:54:42;;;;;;;27.95;12.80;;;;;;;5.73;97.99;101898.44;4995170;28;20024;-77
2020/12/18 05:57:15;;;;;;;23.67;12.15;;;;;;;5.73;98.15;101916.97;5045052;28;20120;-77
2020/12/18 05:59:47;;;;;;;29.48;11.98;;;;;;;5.71;98.11;101894.16;5017724;28;20029;-76
2020/12/18 06:02:14;;;;;;;26.58;11.88;;;;;;;5.78;98.18;101898.13;5023396;28;20038;-77
2020/12/18 06:04:40;;;;;;;27.48;11.93;;;;;;;5.78;97.65;101901.63;5020597;28;20073;-77
2020/12/18 06:07:06;;;;;;;29.50;13.05;;;;;;;5.70;97.87;101893.31;5021529;28;20506;-77
2020/12/18 06:09:31;;;;;;;31.40;11.27;;;;;;;5.79;97.54;101905.97;5007917;28;20060;-77
2020/12/18 06:11:57;;;;;;;23.45;10.63;;;;;;;5.77;97.55;101899.09;5022410;28;20036;-77
2020/12/18 06:14:22;;;;;;;31.08;11.70;;;;;;;5.78;98.30;101914.03;5037668;28;20479;-74
2020/12/18 06:16:49;;;;;;;27.85;12.40;;;;;;;5.78;98.07;101901.63;5009491;28;20460;-77
2020/12/18 06:19:16;;;;;;;23.77;10.57;;;;;;;5.69;98.00;101896.91;5017354;28;20044;-77
2020/12/18 06:21:55;;;;;;;24.77;11.02;;;;;;;5.65;97.94;101890.09;5016628;28;20041;-77
2020/12/18 06:24:20;;;;;;;25.13;11.25;;;;;;;5.78;98.64;101912.22;5020672;28;20510;-77
2020/12/18 06:26:46;;;;;;;22.20;10.63;;;;;;;5.83;98.02;101914.59;5012079;28;20033;-77
2020/12/18 06:29:16;;;;;;;17.52;10.32;;;;;;;5.82;97.84;101916.38;5041605;28;20110;-78
2020/12/18 06:31:41;;;;;;;25.38;11.20;;;;;;;5.59;97.94;101885.19;5049832;28;20052;-74
2020/12/18 06:34:07;;;;;;;24.65;10.75;;;;;;;5.85;97.38;101923.28;5019486;28;20496;-77
2020/12/18 06:36:48;;;;;;;17.23;9.93;;;;;;;5.83;98.01;101907.50;5035471;28;20795;-74
2020/12/18 06:39:21;;;;;;;26.58;10.32;;;;;;;5.82;97.92;101907.59;5031380;28;20071;-77
2020/12/18 06:41:46;;;;;;;26.27;11.43;;;;;;;5.83;97.61;101894.25;5000311;28;20032;-77
2020/12/18 06:44:34;;;;;;;32.08;10.73;;;;;;;5.93;97.70;101898.97;5043182;28;20065;-78
2020/12/18 06:47:07;;;;;;;21.75;11.65;;;;;;;5.98;97.92;101891.59;5026012;28;20044;-78
2020/12/18 06:50:07;;;;;;;23.67;11.60;;;;;;;6.00;97.65;101904.75;5034725;28;20044;-74
2020/12/18 06:52:45;;;;;;;29.23;12.45;;;;;;;5.96;97.78;101883.75;5003996;28;20400;-77
2020/12/18 06:55:15;;;;;;;;;;;;;;;6.08;98.04;101892.72;5010206;28;20029;-74
2020/12/18 06:57:40;;;;;;;27.75;15.20;;;;;;;6.05;97.78;101882.31;5023923;28;19971;-76
2020/12/18 07:00:21;;;;;;;31.05;16.67;;;;;;;6.19;98.38;101910.59;5025596;28;20128;-77
2020/12/18 07:02:47;;;;;;;37.83;17.52;;;;;;;6.25;98.15;101919.97;5030851;28;20502;-77
2020/12/18 07:05:35;;;;;;;36.08;18.63;;;;;;;6.31;98.22;101922.19;5040817;28;20068;-77
2020/12/18 07:08:05;;;;;;;36.42;21.90;;;;;;;5.87;98.08;101846.38;5032781;28;20048;-77
2020/12/18 07:10:41;;;;;;;36.88;23.35;;;;;;;6.20;97.73;101882.28;5017232;28;20033;-78
2020/12/18 07:13:08;;;;;;;40.13;24.55;;;;;;;6.43;97.28;101925.88;5030312;28;20049;-77
2020/12/18 07:15:42;;;;;;;46.47;26.45;;;;;;;6.52;97.47;101921.78;5026015;28;20502;-74
2020/12/18 07:18:12;;;;;;;39.78;26.17;;;;;;;6.55;97.30;101927.72;5035257;28;20037;-77
2020/12/18 07:20:37;;;;;;;42.25;27.83;;;;;;;6.58;97.02;101932.00;5023179;28;20498;-77
2020/12/18 07:23:03;;;;;;;41.53;27.55;;;;;;;6.64;97.41;101934.22;5020909;28;20140;-77
2020/12/18 07:25:28;;;;;;;45.65;27.35;;;;;;;6.63;97.16;101934.34;5003241;28;20043;-77
2020/12/18 07:27:54;;;;;;;43.30;29.38;;;;;;;6.70;97.18;101946.22;5019902;28;20040;-77
2020/12/18 07:30:21;;;;;;;47.45;29.85;;;;;;;6.70;97.04;101928.53;5019821;28;20040;-77
2020/12/18 07:32:49;;;;;;;41.67;28.95;;;;;;;6.76;96.61;101939.66;5017904;28;20045;-78
2020/12/18 07:35:15;;;;;;;44.40;29.20;;;;;;;6.78;96.65;101938.63;5018376;28;20022;-78
2020/12/18 07:37:40;;;;;;;45.55;29.83;;;;;;;6.87;96.33;101942.47;5035449;28;20053;-77
2020/12/18 07:40:06;;;;;;;49.85;30.15;;;;;;;6.83;96.32;101948.94;5035226;28;20124;-75
2020/12/18 07:42:32;;;;;;;46.15;29.65;;;;;;;6.65;96.39;101921.84;5005224;28;20731;-78
2020/12/18 07:45:05;;;;;;;45.97;29.55;;;;;;;6.90;96.23;101963.50;5037256;28;20054;-77
2020/12/18 07:47:33;;;;;;;49.83;30.10;;;;;;;6.91;96.34;101962.53;5042389;28;20206;-77
2020/12/18 07:49:59;;;;;;;50.75;29.90;;;;;;;6.86;96.32;101961.97;5021142;28;20060;-76
2020/12/18 07:52:25;;;;;;;45.97;30.27;;;;;;;6.86;96.54;101965.50;4991594;28;20158;-75
2020/12/18 07:54:55;;;;;;;49.00;31.10;;;;;;;6.78;96.86;101943.94;5036418;28;20124;-75
2020/12/18 07:57:20;;;;;;;47.13;30.25;;;;;;;6.83;96.80;101946.28;5014860;28;20041;-78
2020/12/18 07:59:46;;;;;;;48.28;31.58;;;;;;;6.91;96.50;101949.28;5031461;28;20479;-79
2020/12/18 08:02:24;;;;;;;45.65;30.42;;;;;;;6.94;96.51;101970.31;5008640;28;20087;-77
2020/12/18 08:04:57;;;;;;;44.53;28.80;;;;;;;6.99;96.29;101972.66;5034769;28;20050;-77
2020/12/18 08:07:22;;;;;;;46.70;29.38;;;;;;;6.95;96.10;101966.69;5021226;28;20068;-78
2020/12/18 08:10:01;;;;;;;41.65;28.70;;;;;;;6.97;96.43;101969.25;5012653;28;20155;-77
2020/12/18 08:12:28;;;;;;;43.88;29.77;;;;;;;6.89;96.49;101962.66;5020921;28;20041;-77
2020/12/18 08:15:12;;;;;;;47.53;29.45;;;;;;;7.02;96.41;101970.63;5011704;28;20045;-78
2020/12/18 08:17:39;;;;;;;38.38;27.23;;;;;;;7.09;95.85;101962.28;5011301;28;20091;-77
2020/12/18 08:20:06;;;;;;;42.13;27.80;;;;;;;7.09;95.75;101963.13;5016364;28;20049;-78
2020/12/18 08:22:44;;;;;;;33.30;25.42;;;;;;;7.16;95.71;101964.41;5002863;28;20037;-77
2020/12/18 08:25:11;;;;;;;30.75;23.02;;;;;;;7.27;95.47;101969.00;5022736;28;20540;-77
2020/12/18 08:27:48;;;;;;;40.40;23.23;;;;;;;7.29;95.25;101960.94;5020020;28;20367;-77
2020/12/18 08:30:18;;;;;;;39.58;23.70;;;;;;;7.37;94.63;101965.72;5018798;28;20041;-76
2020/12/18 08:32:47;;;;;;;38.63;24.88;;;;;;;7.37;94.14;101963.06;5037880;28;20052;-76
2020/12/18 08:35:18;;;;;;;41.47;25.15;;;;;;;7.32;94.82;101955.44;5002475;28;20064;-76
2020/12/18 08:37:43;;;;;;;41.63;25.83;;;;;;;7.43;94.50;101974.13;5004381;28;20322;-76
2020/12/18 08:40:23;;;;;;;39.45;26.23;;;;;;;7.31;94.41;101941.28;5014722;28;20163;-76
2020/12/18 08:42:59;;;;;;;36.80;25.23;;;;;;;7.53;94.15;101977.00;5009402;28;20059;-76
2020/12/18 08:45:25;;;;;;;36.00;24.63;;;;;;;7.55;93.81;101968.91;5013987;28;20078;-78
2020/12/18 08:47:50;;;;;;;38.72;25.40;;;;;;;7.55;94.27;101972.41;4998629;28;20175;-75
2020/12/18 08:50:17;;;;;;;29.30;22.25;;;;;;;7.62;93.93;101978.16;5015633;28;20043;-77
2020/12/18 08:52:43;;;;;;;29.40;21.02;;;;;;;7.41;93.56;101930.88;5001996;28;20478;-77
2020/12/18 08:55:08;;;;;;;29.55;21.58;;;;;;;7.68;93.25;101977.75;5011920;28;20027;-77
2020/12/18 08:57:36;;;;;;;25.63;18.60;;;;;;;7.65;93.39;101957.56;5016838;28;20041;-77
2020/12/18 09:00:17;;;;;;;28.10;19.33;;;;;;;7.76;92.56;101967.41;5002933;28;20040;-77
2020/12/18 09:02:49;;;;;;;23.20;17.45;;;;;;;7.83;93.05;101967.84;5010688;28;20475;-76
2020/12/18 09:05:30;;;;;;;22.92;16.55;;;;;;;7.28;92.40;101866.31;5010245;28;20494;-76
2020/12/18 09:08:05;;;;;;;24.45;16.73;;;;;;;7.89;91.98;101961.25;5028825;28;20511;-77
2020/12/18 09:10:41;;;;;;;25.63;15.88;;;;;;;7.94;91.79;101961.78;5003335;28;20037;-77
2020/12/18 09:13:28;;;;;;;22.27;15.43;;;;;;;7.95;91.62;101929.75;5015158;28;20040;-77
2020/12/18 09:16:09;;;;;;;24.40;16.95;;;;;;;8.10;91.17;101946.44;4998094;28;20084;-76
2020/12/18 09:18:36;;;;;;;23.42;15.88;;;;;;;8.15;91.07;101938.13;5012408;28;20101;-76
2020/12/18 09:21:28;;;;;;;23.60;16.33;;;;;;;8.19;91.26;101942.28;5013550;28;20398;-76
2020/12/18 09:23:53;;;;;;;25.63;17.13;;;;;;;8.23;90.34;101941.09;5016843;28;20057;-73
2020/12/18 09:26:26;;;;;;;25.40;17.80;;;;;;;8.24;90.30;101941.94;4999885;28;20034;-73
2020/12/18 09:28:52;;;;;;;23.83;17.85;;;;;;;8.15;90.68;101942.59;5013902;28;20106;-73
2020/12/18 09:31:17;;;;;;;26.95;17.85;;;;;;;8.16;91.07;101945.16;4996563;28;20128;-73
2020/12/18 09:33:43;;;;;;;24.13;17.42;;;;;;;8.23;90.73;101948.22;5018460;28;20107;-73
2020/12/18 09:36:09;;;;;;;28.10;16.35;;;;;;;8.27;90.51;101952.38;5014443;28;20446;-73
2020/12/18 09:38:35;;;;;;;24.13;16.67;;;;;;;8.21;90.84;101955.47;5030330;28;20045;-73
2020/12/18 09:41:02;;;;;;;26.33;16.25;;;;;;;8.21;90.08;101960.78;5011764;28;20037;-77
2020/12/18 09:43:28;;;;;;;23.45;15.38;;;;;;;8.26;90.27;101967.47;5001926;28;20048;-77
2020/12/18 09:45:54;;;;;;;24.38;15.90;;;;;;;8.24;90.62;101968.53;4996773;28;20068;-78
2020/12/18 09:48:20;;;;;;;19.38;15.05;;;;;;;8.25;89.72;101951.63;4998139;28;20044;-77
2020/12/18 09:50:45;;;;;;;22.55;14.98;;;;;;;7.63;89.89;101847.88;5000438;28;20499;-77
2020/12/18 09:53:11;;;;;;;16.27;12.85;;;;;;;8.20;90.24;101937.81;5005354;28;20033;-77
2020/12/18 09:55:36;;;;;;;24.30;14.57;;;;;;;8.39;89.86;101958.59;5013982;28;20064;-77
2020/12/18 09:58:03;;;;;;;19.85;14.35;;;;;;;8.41;90.24;101954.84;5010538;28;20116;-77
2020/12/18 10:00:28;;;;;;;17.63;12.80;;;;;;;8.49;89.75;101958.81;5012991;28;20052;-78
2020/12/18 10:02:54;;;;;;;21.73;12.80;;;;;;;8.46;89.70;101959.84;5001340;28;20052;-79
2020/12/18 10:05:20;;;;;;;22.38;12.70;;;;;;;8.40;90.35;101953.19;4998799;28;20046;-77
2020/12/18 10:07:45;;;;;;;16.02;11.20;;;;;;;8.49;89.46;101974.78;5010944;28;20048;-77
2020/12/18 10:10:11;;;;;;;21.27;11.57;;;;;;;8.55;89.46;101958.38;5026793;28;20524;-77
2020/12/18 10:12:37;;;;;;;16.17;10.77;;;;;;;8.60;89.81;101955.38;4996368;28;20052;-77
2020/12/18 10:15:02;;;;;;;16.65;9.98;;;;;;;8.67;89.55;101967.25;5027572;28;20421;-77
2020/12/18 10:17:28;;;;;;;18.80;11.18;;;;;;;8.70;88.57;101959.03;5026207;28;20041;-77
2020/12/18 10:19:53;;;;;;;17.25;9.93;;;;;;;8.56;88.99;101923.66;5004878;28;20059;-77
2020/12/18 10:22:19;;;;;;;14.63;9.55;;;;;;;8.77;89.08;101949.63;5011034;28;20123;-76
2020/12/18 10:24:44;;;;;;;16.88;8.90;;;;;;;8.79;88.91;101952.19;5037837;28;20120;-77
2020/12/18 10:27:11;;;;;;;16.10;9.30;;;;;;;8.80;88.72;101946.75;5020264;28;20566;-77
2020/12/18 10:29:36;;;;;;;18.65;9.40;;;;;;;8.81;88.75;101937.81;5034073;28;20041;-77
2020/12/18 10:32:02;;;;;;;13.15;8.57;;;;;;;8.75;87.65;101916.13;4997506;28;20165;-76
2020/12/18 10:34:28;;;;;;;15.10;8.68;;;;;;;8.91;87.85;101929.13;4978578;28;20108;-77
2020/12/18 10:36:54;;;;;;;15.02;8.15;;;;;;;8.91;88.22;101921.13;5031799;28;20467;-78
2020/12/18 10:39:21;;;;;;;18.55;8.52;;;;;;;8.95;88.08;101920.81;5013966;28;20053;-77
2020/12/18 10:41:47;;;;;;;15.88;8.73;;;;;;;8.95;88.73;101918.16;5032857;28;20041;-76
2020/12/18 10:44:12;;;;;;;17.15;8.02;;;;;;;8.99;88.08;101908.94;5017453;28;20119;-77
2020/12/18 10:46:40;;;;;;;16.08;7.57;;;;;;;9.01;88.25;101900.84;5021278;28;20124;-77
2020/12/18 10:49:06;;;;;;;12.15;7.35;;;;;;;9.03;87.53;101906.88;5005213;28;20041;-76
2020/12/18 10:51:31;;;;;;;15.38;7.75;;;;;;;9.05;87.78;101902.28;5047935;28;20067;-77
2020/12/18 10:53:57;;;;;;;15.98;7.35;;;;;;;8.78;87.50;101852.84;5006106;28;20144;-77
2020/12/18 10:56:22;;;;;;;17.38;7.07;;;;;;;9.06;87.71;101885.34;5036772;28;20442;-77
2020/12/18 10:58:48;;;;;;;15.05;7.63;;;;;;;9.12;88.19;101892.03;5031599;28;20469;-75
2020/12/18 11:01:17;;;;;;;14.02;6.50;;;;;;;9.01;87.83;101851.09;5031325;28;20082;-77
2020/12/18 11:03:43;;;;;;;13.65;6.95;;;;;;;9.15;87.22;101859.84;5011657;28;20028;-77
2020/12/18 11:06:08;;;;;;;10.73;6.47;;;;;;;9.29;87.31;101858.78;5035476;28;20570;-77
2020/12/18 11:08:34;;;;;;;15.93;6.47;;;;;;;9.33;87.18;101850.44;4995337;28;20140;-77
2020/12/18 11:11:00;;;;;;;12.10;5.90;;;;;;;9.29;86.56;101824.97;5028594;28;20133;-77
2020/12/18 11:13:25;;;;;;;13.18;5.85;;;;;;;9.43;87.07;101839.88;5035763;28;20152;-77
2020/12/18 11:15:51;;;;;;;17.95;6.13;;;;;;;9.45;86.74;101845.09;5031462;28;20040;-77
2020/12/18 11:18:16;;;;;;;13.75;5.90;;;;;;;9.50;86.19;101848.22;5018615;28;20044;-73
2020/12/18 11:20:42;;;;;;;14.48;5.40;;;;;;;9.47;86.26;101836.00;5040737;28;20063;-78